sensor_id;sensor_type;location;lat;lon;timestamp;P1;durP1;ratioP1;P2;durP2;ratioP2
31482;SDS011;18103;52.246;8.052;2022-12-29T00:02:16;2.93;;;1.37;;
31482;SDS011;18103;52.246;8.052;2022-12-29T00:04:41;2.67;;;1.90;;
31482;SDS011;18103;52.246;8.052;2022-12-29T00:07:07;2.27;;;2.07;;
31482;SDS011;18103;52.246;8.052;2022-12-29T00:09:33;2.20;;;2.00;;
31482;SDS011;18103;52.246;8.052;2022-12-29T00:12:00;1.90;;;1.40;;
31482;SDS011;18103;52.246;8.052;2022-12-29T00:14:26;2.70;;;2.23;;
31482;SDS011;18103;52.246;8.052;2022-12-29T00:17:10;2.53;;;2.13;;
31482;SDS011;18103;52.246;8.052;2022-12-29T00:19:35;2.27;;;1.87;;
31482;SDS011;18103;52.246;8.052;2022-12-29T00:22:20;3.63;;;1.57;;
31482;SDS011;18103;52.246;8.052;2022-12-29T00:25:04;3.27;;;2.33;;
31482;SDS011;18103;52.246;8.052;2022-12-29T00:27:51;2.17;;;1.77;;
31482;SDS011;18103;52.246;8.052;2022-12-29T00:30:35;2.30;;;1.97;;
31482;SDS011;18103;52.246;8.052;2022-12-29T00:33:20;2.90;;;1.80;;
31482;SDS011;18103;52.246;8.052;2022-12-29T00:36:20;3.20;;;1.80;;
31482;SDS011;18103;52.246;8.052;2022-12-29T00:38:56;1.83;;;1.63;;
31482;SDS011;18103;52.246;8.052;2022-12-29T00:41:47;2.00;;;1.50;;
31482;SDS011;18103;52.246;8.052;2022-12-29T00:44:31;2.13;;;1.53;;
31482;SDS011;18103;52.246;8.052;2022-12-29T00:46:56;3.07;;;2.00;;
31482;SDS011;18103;52.246;8.052;2022-12-29T00:49:22;2.20;;;1.60;;
31482;SDS011;18103;52.246;8.052;2022-12-29T00:51:57;2.07;;;1.33;;
31482;SDS011;18103;52.246;8.052;2022-12-29T00:54:23;2.13;;;1.77;;
31482;SDS011;18103;52.246;8.052;2022-12-29T00:56:49;2.20;;;1.10;;
31482;SDS011;18103;52.246;8.052;2022-12-29T00:59:15;1.53;;;1.33;;
31482;SDS011;18103;52.246;8.052;2022-12-29T01:01:41;3.30;;;1.57;;
31482;SDS011;18103;52.246;8.052;2022-12-29T01:04:07;2.37;;;1.60;;
31482;SDS011;18103;52.246;8.052;2022-12-29T01:06:34;2.57;;;1.70;;
31482;SDS011;18103;52.246;8.052;2022-12-29T01:09:00;1.73;;;1.60;;
31482;SDS011;18103;52.246;8.052;2022-12-29T01:11:45;1.83;;;1.23;;
31482;SDS011;18103;52.246;8.052;2022-12-29T01:14:10;1.53;;;1.20;;
31482;SDS011;18103;52.246;8.052;2022-12-29T01:16:35;2.87;;;1.70;;
31482;SDS011;18103;52.246;8.052;2022-12-29T01:19:01;1.63;;;0.90;;
31482;SDS011;18103;52.246;8.052;2022-12-29T01:21:27;1.80;;;1.00;;
31482;SDS011;18103;52.246;8.052;2022-12-29T01:23:53;1.47;;;1.17;;
31482;SDS011;18103;52.246;8.052;2022-12-29T01:26:18;1.30;;;1.00;;
31482;SDS011;18103;52.246;8.052;2022-12-29T01:28:43;2.00;;;0.60;;
31482;SDS011;18103;52.246;8.052;2022-12-29T01:31:10;1.20;;;1.00;;
31482;SDS011;18103;52.246;8.052;2022-12-29T01:33:37;0.60;;;0.60;;
31482;SDS011;18103;52.246;8.052;2022-12-29T01:36:04;0.40;;;0.40;;
31482;SDS011;18103;52.246;8.052;2022-12-29T01:38:31;3.10;;;1.20;;
31482;SDS011;18103;52.246;8.052;2022-12-29T01:40:57;0.90;;;0.80;;
31482;SDS011;18103;52.246;8.052;2022-12-29T01:43:41;1.87;;;1.33;;
31482;SDS011;18103;52.246;8.052;2022-12-29T01:46:13;1.77;;;1.30;;
31482;SDS011;18103;52.246;8.052;2022-12-29T01:48:45;1.63;;;1.20;;
31482;SDS011;18103;52.246;8.052;2022-12-29T01:51:13;1.20;;;0.90;;
31482;SDS011;18103;52.246;8.052;2022-12-29T01:53:39;1.23;;;1.10;;
31482;SDS011;18103;52.246;8.052;2022-12-29T01:56:06;1.57;;;1.20;;
31482;SDS011;18103;52.246;8.052;2022-12-29T01:58:36;1.33;;;1.23;;
31482;SDS011;18103;52.246;8.052;2022-12-29T02:01:06;1.93;;;1.50;;
31482;SDS011;18103;52.246;8.052;2022-12-29T02:03:33;2.50;;;1.50;;
31482;SDS011;18103;52.246;8.052;2022-12-29T02:06:05;4.70;;;1.47;;
31482;SDS011;18103;52.246;8.052;2022-12-29T02:08:52;1.70;;;1.27;;
31482;SDS011;18103;52.246;8.052;2022-12-29T02:11:19;1.70;;;1.43;;
31482;SDS011;18103;52.246;8.052;2022-12-29T02:13:48;1.27;;;1.17;;
31482;SDS011;18103;52.246;8.052;2022-12-29T02:32:38;0.87;;;0.80;;
31482;SDS011;18103;52.246;8.052;2022-12-29T02:40:53;2.97;;;1.30;;
31482;SDS011;18103;52.246;8.052;2022-12-29T02:45:59;1.03;;;1.00;;
31482;SDS011;18103;52.246;8.052;2022-12-29T02:48:41;1.40;;;1.27;;
31482;SDS011;18103;52.246;8.052;2022-12-29T02:54:20;1.00;;;0.90;;
31482;SDS011;18103;52.246;8.052;2022-12-29T02:57:38;1.13;;;0.97;;
31482;SDS011;18103;52.246;8.052;2022-12-29T03:00:01;1.00;;;0.90;;
31482;SDS011;18103;52.246;8.052;2022-12-29T03:05:15;1.30;;;0.93;;
31482;SDS011;18103;52.246;8.052;2022-12-29T03:14:36;0.60;;;0.60;;
31482;SDS011;18103;52.246;8.052;2022-12-29T03:20:13;0.33;;;0.33;;
31482;SDS011;18103;52.246;8.052;2022-12-29T03:22:49;3.03;;;0.87;;
31482;SDS011;18103;52.246;8.052;2022-12-29T03:25:28;0.80;;;0.63;;
31482;SDS011;18103;52.246;8.052;2022-12-29T03:27:57;0.60;;;0.60;;
31482;SDS011;18103;52.246;8.052;2022-12-29T03:30:26;0.50;;;0.40;;
31482;SDS011;18103;52.246;8.052;2022-12-29T03:32:55;0.50;;;0.50;;
31482;SDS011;18103;52.246;8.052;2022-12-29T03:35:25;0.93;;;0.50;;
31482;SDS011;18103;52.246;8.052;2022-12-29T03:40:42;0.50;;;0.50;;
31482;SDS011;18103;52.246;8.052;2022-12-29T03:43:10;0.60;;;0.60;;
31482;SDS011;18103;52.246;8.052;2022-12-29T03:45:37;0.70;;;0.70;;
31482;SDS011;18103;52.246;8.052;2022-12-29T03:48:03;3.77;;;0.70;;
31482;SDS011;18103;52.246;8.052;2022-12-29T03:50:29;0.40;;;0.40;;
31482;SDS011;18103;52.246;8.052;2022-12-29T03:52:54;0.37;;;0.37;;
31482;SDS011;18103;52.246;8.052;2022-12-29T03:55:19;0.70;;;0.60;;
31482;SDS011;18103;52.246;8.052;2022-12-29T03:57:45;0.97;;;0.43;;
31482;SDS011;18103;52.246;8.052;2022-12-29T04:00:10;3.57;;;0.47;;
31482;SDS011;18103;52.246;8.052;2022-12-29T04:02:36;0.67;;;0.50;;
31482;SDS011;18103;52.246;8.052;2022-12-29T04:05:01;0.80;;;0.60;;
31482;SDS011;18103;52.246;8.052;2022-12-29T04:07:27;0.70;;;0.40;;
31482;SDS011;18103;52.246;8.052;2022-12-29T04:09:52;1.50;;;0.63;;
31482;SDS011;18103;52.246;8.052;2022-12-29T04:12:18;1.93;;;0.80;;
31482;SDS011;18103;52.246;8.052;2022-12-29T04:14:43;2.37;;;0.60;;
31482;SDS011;18103;52.246;8.052;2022-12-29T04:17:09;2.83;;;0.60;;
31482;SDS011;18103;52.246;8.052;2022-12-29T04:19:34;4.07;;;0.77;;
31482;SDS011;18103;52.246;8.052;2022-12-29T04:21:59;3.67;;;0.67;;
31482;SDS011;18103;52.246;8.052;2022-12-29T04:24:25;0.60;;;0.50;;
31482;SDS011;18103;52.246;8.052;2022-12-29T04:26:50;2.10;;;0.50;;
31482;SDS011;18103;52.246;8.052;2022-12-29T04:29:15;1.60;;;0.70;;
31482;SDS011;18103;52.246;8.052;2022-12-29T04:31:41;3.10;;;0.70;;
31482;SDS011;18103;52.246;8.052;2022-12-29T04:34:06;1.60;;;0.60;;
31482;SDS011;18103;52.246;8.052;2022-12-29T04:36:32;1.40;;;0.60;;
31482;SDS011;18103;52.246;8.052;2022-12-29T04:38:58;3.03;;;0.67;;
31482;SDS011;18103;52.246;8.052;2022-12-29T04:41:23;0.40;;;0.40;;
31482;SDS011;18103;52.246;8.052;2022-12-29T04:43:49;2.73;;;0.53;;
31482;SDS011;18103;52.246;8.052;2022-12-29T04:46:14;0.77;;;0.50;;
31482;SDS011;18103;52.246;8.052;2022-12-29T04:48:40;2.50;;;0.40;;
31482;SDS011;18103;52.246;8.052;2022-12-29T04:51:05;0.90;;;0.57;;
31482;SDS011;18103;52.246;8.052;2022-12-29T04:53:31;0.40;;;0.40;;
31482;SDS011;18103;52.246;8.052;2022-12-29T04:55:56;1.70;;;0.60;;
31482;SDS011;18103;52.246;8.052;2022-12-29T04:58:21;1.37;;;0.80;;
31482;SDS011;18103;52.246;8.052;2022-12-29T05:00:47;0.87;;;0.77;;
31482;SDS011;18103;52.246;8.052;2022-12-29T05:03:12;0.40;;;0.30;;
31482;SDS011;18103;52.246;8.052;2022-12-29T05:05:41;1.30;;;0.40;;
31482;SDS011;18103;52.246;8.052;2022-12-29T05:08:06;0.50;;;0.50;;
31482;SDS011;18103;52.246;8.052;2022-12-29T05:10:32;0.53;;;0.30;;
31482;SDS011;18103;52.246;8.052;2022-12-29T05:12:57;0.30;;;0.30;;
31482;SDS011;18103;52.246;8.052;2022-12-29T05:15:23;0.60;;;0.40;;
31482;SDS011;18103;52.246;8.052;2022-12-29T05:17:48;0.73;;;0.60;;
31482;SDS011;18103;52.246;8.052;2022-12-29T05:20:13;1.00;;;0.60;;
31482;SDS011;18103;52.246;8.052;2022-12-29T05:22:39;1.87;;;0.40;;
31482;SDS011;18103;52.246;8.052;2022-12-29T05:25:04;0.87;;;0.40;;
31482;SDS011;18103;52.246;8.052;2022-12-29T05:27:30;0.87;;;0.50;;
31482;SDS011;18103;52.246;8.052;2022-12-29T05:29:56;0.33;;;0.33;;
31482;SDS011;18103;52.246;8.052;2022-12-29T05:32:21;2.37;;;0.50;;
31482;SDS011;18103;52.246;8.052;2022-12-29T05:34:46;1.40;;;0.40;;
31482;SDS011;18103;52.246;8.052;2022-12-29T05:37:12;1.60;;;0.50;;
31482;SDS011;18103;52.246;8.052;2022-12-29T05:39:40;1.40;;;0.40;;
31482;SDS011;18103;52.246;8.052;2022-12-29T05:42:05;2.63;;;0.70;;
31482;SDS011;18103;52.246;8.052;2022-12-29T05:44:30;0.60;;;0.20;;
31482;SDS011;18103;52.246;8.052;2022-12-29T05:46:56;0.97;;;0.60;;
31482;SDS011;18103;52.246;8.052;2022-12-29T05:49:21;1.03;;;0.40;;
31482;SDS011;18103;52.246;8.052;2022-12-29T05:51:47;1.13;;;0.40;;
31482;SDS011;18103;52.246;8.052;2022-12-29T05:54:12;0.30;;;0.30;;
31482;SDS011;18103;52.246;8.052;2022-12-29T05:56:38;1.90;;;0.43;;
31482;SDS011;18103;52.246;8.052;2022-12-29T05:59:04;0.40;;;0.20;;
31482;SDS011;18103;52.246;8.052;2022-12-29T06:01:29;4.00;;;0.33;;
31482;SDS011;18103;52.246;8.052;2022-12-29T06:03:54;0.27;;;0.27;;
31482;SDS011;18103;52.246;8.052;2022-12-29T06:06:20;0.33;;;0.27;;
31482;SDS011;18103;52.246;8.052;2022-12-29T06:08:45;0.87;;;0.50;;
31482;SDS011;18103;52.246;8.052;2022-12-29T06:11:11;0.47;;;0.30;;
31482;SDS011;18103;52.246;8.052;2022-12-29T06:13:36;0.50;;;0.20;;
31482;SDS011;18103;52.246;8.052;2022-12-29T06:16:02;0.40;;;0.30;;
31482;SDS011;18103;52.246;8.052;2022-12-29T06:18:31;0.30;;;0.30;;
31482;SDS011;18103;52.246;8.052;2022-12-29T06:21:03;0.57;;;0.30;;
31482;SDS011;18103;52.246;8.052;2022-12-29T06:23:29;0.53;;;0.30;;
31482;SDS011;18103;52.246;8.052;2022-12-29T06:25:55;0.23;;;0.23;;
31482;SDS011;18103;52.246;8.052;2022-12-29T06:28:20;0.30;;;0.20;;
31482;SDS011;18103;52.246;8.052;2022-12-29T06:30:46;0.20;;;0.20;;
31482;SDS011;18103;52.246;8.052;2022-12-29T06:33:12;0.63;;;0.30;;
31482;SDS011;18103;52.246;8.052;2022-12-29T06:35:38;0.50;;;0.30;;
31482;SDS011;18103;52.246;8.052;2022-12-29T06:38:03;1.03;;;0.40;;
31482;SDS011;18103;52.246;8.052;2022-12-29T06:40:29;4.03;;;0.30;;
31482;SDS011;18103;52.246;8.052;2022-12-29T06:42:54;2.73;;;0.40;;
31482;SDS011;18103;52.246;8.052;2022-12-29T06:45:21;0.33;;;0.30;;
31482;SDS011;18103;52.246;8.052;2022-12-29T06:47:46;0.73;;;0.27;;
31482;SDS011;18103;52.246;8.052;2022-12-29T06:50:15;2.03;;;0.40;;
31482;SDS011;18103;52.246;8.052;2022-12-29T06:52:40;6.40;;;0.73;;
31482;SDS011;18103;52.246;8.052;2022-12-29T06:55:06;1.33;;;0.60;;
31482;SDS011;18103;52.246;8.052;2022-12-29T06:57:35;1.60;;;0.80;;
31482;SDS011;18103;52.246;8.052;2022-12-29T07:00:01;1.37;;;0.73;;
31482;SDS011;18103;52.246;8.052;2022-12-29T07:02:27;4.47;;;0.37;;
31482;SDS011;18103;52.246;8.052;2022-12-29T07:04:53;4.80;;;0.50;;
31482;SDS011;18103;52.246;8.052;2022-12-29T07:07:19;3.47;;;0.60;;
31482;SDS011;18103;52.246;8.052;2022-12-29T07:09:45;0.43;;;0.40;;
31482;SDS011;18103;52.246;8.052;2022-12-29T07:12:11;0.30;;;0.30;;
31482;SDS011;18103;52.246;8.052;2022-12-29T07:14:37;2.77;;;0.70;;
31482;SDS011;18103;52.246;8.052;2022-12-29T07:17:02;0.40;;;0.30;;
31482;SDS011;18103;52.246;8.052;2022-12-29T07:19:30;1.70;;;0.50;;
31482;SDS011;18103;52.246;8.052;2022-12-29T07:21:56;3.30;;;0.43;;
31482;SDS011;18103;52.246;8.052;2022-12-29T07:24:21;1.07;;;0.60;;
31482;SDS011;18103;52.246;8.052;2022-12-29T07:26:46;1.97;;;0.60;;
31482;SDS011;18103;52.246;8.052;2022-12-29T07:29:12;3.70;;;0.80;;
31482;SDS011;18103;52.246;8.052;2022-12-29T07:31:37;10.47;;;0.83;;
31482;SDS011;18103;52.246;8.052;2022-12-29T07:34:02;1.90;;;0.53;;
31482;SDS011;18103;52.246;8.052;2022-12-29T07:36:28;1.20;;;0.57;;
31482;SDS011;18103;52.246;8.052;2022-12-29T07:38:53;4.73;;;0.60;;
31482;SDS011;18103;52.246;8.052;2022-12-29T07:41:19;2.07;;;0.70;;
31482;SDS011;18103;52.246;8.052;2022-12-29T07:43:46;1.20;;;0.47;;
31482;SDS011;18103;52.246;8.052;2022-12-29T07:46:13;1.37;;;0.30;;
31482;SDS011;18103;52.246;8.052;2022-12-29T07:48:39;3.43;;;0.77;;
31482;SDS011;18103;52.246;8.052;2022-12-29T07:51:04;2.20;;;0.60;;
31482;SDS011;18103;52.246;8.052;2022-12-29T07:53:30;0.73;;;0.43;;
31482;SDS011;18103;52.246;8.052;2022-12-29T07:55:55;4.73;;;0.40;;
31482;SDS011;18103;52.246;8.052;2022-12-29T07:58:21;2.63;;;0.50;;
31482;SDS011;18103;52.246;8.052;2022-12-29T08:00:46;1.60;;;0.63;;
31482;SDS011;18103;52.246;8.052;2022-12-29T08:03:11;2.23;;;0.50;;
31482;SDS011;18103;52.246;8.052;2022-12-29T08:05:37;7.27;;;0.70;;
31482;SDS011;18103;52.246;8.052;2022-12-29T08:08:02;4.20;;;0.60;;
31482;SDS011;18103;52.246;8.052;2022-12-29T08:10:28;1.60;;;0.47;;
31482;SDS011;18103;52.246;8.052;2022-12-29T08:12:53;2.87;;;0.43;;
31482;SDS011;18103;52.246;8.052;2022-12-29T08:15:19;2.30;;;0.40;;
31482;SDS011;18103;52.246;8.052;2022-12-29T08:17:44;2.23;;;0.50;;
31482;SDS011;18103;52.246;8.052;2022-12-29T08:20:10;5.83;;;0.80;;
31482;SDS011;18103;52.246;8.052;2022-12-29T08:22:36;3.00;;;0.40;;
31482;SDS011;18103;52.246;8.052;2022-12-29T08:25:02;12.30;;;1.23;;
31482;SDS011;18103;52.246;8.052;2022-12-29T08:27:28;4.00;;;0.60;;
31482;SDS011;18103;52.246;8.052;2022-12-29T08:29:53;3.10;;;0.60;;
31482;SDS011;18103;52.246;8.052;2022-12-29T08:32:19;3.00;;;0.70;;
31482;SDS011;18103;52.246;8.052;2022-12-29T08:34:44;2.33;;;0.80;;
31482;SDS011;18103;52.246;8.052;2022-12-29T08:37:10;2.33;;;0.73;;
31482;SDS011;18103;52.246;8.052;2022-12-29T08:39:35;2.67;;;0.40;;
31482;SDS011;18103;52.246;8.052;2022-12-29T08:42:01;5.97;;;1.17;;
31482;SDS011;18103;52.246;8.052;2022-12-29T08:44:26;6.50;;;0.83;;
31482;SDS011;18103;52.246;8.052;2022-12-29T08:46:51;4.60;;;0.60;;
31482;SDS011;18103;52.246;8.052;2022-12-29T08:49:17;2.20;;;0.70;;
31482;SDS011;18103;52.246;8.052;2022-12-29T08:51:42;3.60;;;0.90;;
31482;SDS011;18103;52.246;8.052;2022-12-29T08:54:08;4.60;;;0.70;;
31482;SDS011;18103;52.246;8.052;2022-12-29T08:56:33;2.53;;;0.57;;
31482;SDS011;18103;52.246;8.052;2022-12-29T08:59:02;2.97;;;0.77;;
31482;SDS011;18103;52.246;8.052;2022-12-29T09:01:27;1.23;;;0.50;;
31482;SDS011;18103;52.246;8.052;2022-12-29T09:03:53;2.93;;;0.80;;
31482;SDS011;18103;52.246;8.052;2022-12-29T09:06:20;7.73;;;0.90;;
31482;SDS011;18103;52.246;8.052;2022-12-29T09:08:46;3.00;;;0.70;;
31482;SDS011;18103;52.246;8.052;2022-12-29T09:11:15;5.63;;;1.23;;
31482;SDS011;18103;52.246;8.052;2022-12-29T09:13:44;7.10;;;0.80;;
31482;SDS011;18103;52.246;8.052;2022-12-29T09:16:09;3.90;;;0.80;;
31482;SDS011;18103;52.246;8.052;2022-12-29T09:18:35;1.40;;;0.60;;
31482;SDS011;18103;52.246;8.052;2022-12-29T09:21:01;2.73;;;0.60;;
31482;SDS011;18103;52.246;8.052;2022-12-29T09:23:28;1.07;;;0.80;;
31482;SDS011;18103;52.246;8.052;2022-12-29T09:25:54;2.53;;;0.90;;
31482;SDS011;18103;52.246;8.052;2022-12-29T09:28:20;3.43;;;0.90;;
31482;SDS011;18103;52.246;8.052;2022-12-29T09:30:46;1.77;;;0.60;;
31482;SDS011;18103;52.246;8.052;2022-12-29T09:33:12;0.63;;;0.53;;
31482;SDS011;18103;52.246;8.052;2022-12-29T09:35:40;2.97;;;0.70;;
31482;SDS011;18103;52.246;8.052;2022-12-29T09:38:06;4.10;;;1.17;;
31482;SDS011;18103;52.246;8.052;2022-12-29T09:40:32;6.60;;;1.10;;
31482;SDS011;18103;52.246;8.052;2022-12-29T09:45:45;7.67;;;1.17;;
31482;SDS011;18103;52.246;8.052;2022-12-29T09:48:22;5.37;;;0.60;;
31482;SDS011;18103;52.246;8.052;2022-12-29T09:50:52;2.67;;;0.90;;
31482;SDS011;18103;52.246;8.052;2022-12-29T09:55:55;6.10;;;1.57;;
31482;SDS011;18103;52.246;8.052;2022-12-29T09:58:28;3.27;;;0.73;;
31482;SDS011;18103;52.246;8.052;2022-12-29T10:01:05;2.20;;;0.87;;
31482;SDS011;18103;52.246;8.052;2022-12-29T10:09:12;6.70;;;1.10;;
31482;SDS011;18103;52.246;8.052;2022-12-29T10:11:55;0.73;;;0.33;;
31482;SDS011;18103;52.246;8.052;2022-12-29T10:24:03;12.03;;;1.37;;
31482;SDS011;18103;52.246;8.052;2022-12-29T10:26:43;5.70;;;0.70;;
31482;SDS011;18103;52.246;8.052;2022-12-29T10:29:20;2.13;;;0.40;;
31482;SDS011;18103;52.246;8.052;2022-12-29T10:32:13;5.83;;;0.83;;
31482;SDS011;18103;52.246;8.052;2022-12-29T10:34:43;1.67;;;1.10;;
31482;SDS011;18103;52.246;8.052;2022-12-29T10:37:18;2.57;;;0.60;;
31482;SDS011;18103;52.246;8.052;2022-12-29T10:40:13;6.00;;;0.83;;
31482;SDS011;18103;52.246;8.052;2022-12-29T10:42:45;4.50;;;0.70;;
31482;SDS011;18103;52.246;8.052;2022-12-29T10:45:16;2.27;;;0.70;;
31482;SDS011;18103;52.246;8.052;2022-12-29T10:47:50;8.13;;;1.17;;
31482;SDS011;18103;52.246;8.052;2022-12-29T10:50:23;3.77;;;1.03;;
31482;SDS011;18103;52.246;8.052;2022-12-29T10:52:50;6.87;;;1.30;;
31482;SDS011;18103;52.246;8.052;2022-12-29T10:55:19;6.33;;;0.70;;
31482;SDS011;18103;52.246;8.052;2022-12-29T10:57:49;2.47;;;0.60;;
31482;SDS011;18103;52.246;8.052;2022-12-29T11:00:19;7.00;;;1.07;;
31482;SDS011;18103;52.246;8.052;2022-12-29T11:08:22;5.53;;;0.80;;
31482;SDS011;18103;52.246;8.052;2022-12-29T11:11:01;8.87;;;1.10;;
31482;SDS011;18103;52.246;8.052;2022-12-29T11:13:30;7.33;;;0.83;;
31482;SDS011;18103;52.246;8.052;2022-12-29T11:15:56;3.20;;;0.37;;
31482;SDS011;18103;52.246;8.052;2022-12-29T11:18:40;7.53;;;0.93;;
31482;SDS011;18103;52.246;8.052;2022-12-29T11:21:27;6.53;;;1.20;;
31482;SDS011;18103;52.246;8.052;2022-12-29T11:24:02;6.90;;;1.07;;
31482;SDS011;18103;52.246;8.052;2022-12-29T11:26:30;4.27;;;0.70;;
31482;SDS011;18103;52.246;8.052;2022-12-29T11:31:42;7.40;;;0.50;;
31482;SDS011;18103;52.246;8.052;2022-12-29T11:34:07;4.57;;;0.97;;
31482;SDS011;18103;52.246;8.052;2022-12-29T11:36:33;6.40;;;1.07;;
31482;SDS011;18103;52.246;8.052;2022-12-29T11:39:00;5.47;;;1.20;;
31482;SDS011;18103;52.246;8.052;2022-12-29T11:41:30;6.07;;;0.60;;
31482;SDS011;18103;52.246;8.052;2022-12-29T11:44:02;2.20;;;0.90;;
31482;SDS011;18103;52.246;8.052;2022-12-29T11:46:32;4.50;;;1.03;;
31482;SDS011;18103;52.246;8.052;2022-12-29T11:48:59;3.40;;;0.83;;
31482;SDS011;18103;52.246;8.052;2022-12-29T11:51:30;4.80;;;0.93;;
31482;SDS011;18103;52.246;8.052;2022-12-29T11:54:09;0.70;;;0.40;;
31482;SDS011;18103;52.246;8.052;2022-12-29T11:56:43;16.63;;;1.73;;
31482;SDS011;18103;52.246;8.052;2022-12-29T12:04:59;2.33;;;0.47;;
31482;SDS011;18103;52.246;8.052;2022-12-29T12:10:08;6.23;;;0.67;;
31482;SDS011;18103;52.246;8.052;2022-12-29T12:15:40;8.17;;;0.93;;
31482;SDS011;18103;52.246;8.052;2022-12-29T12:18:11;2.77;;;0.73;;
31482;SDS011;18103;52.246;8.052;2022-12-29T12:20:50;9.27;;;1.20;;
31482;SDS011;18103;52.246;8.052;2022-12-29T12:25:57;4.93;;;0.90;;
31482;SDS011;18103;52.246;8.052;2022-12-29T12:28:33;2.57;;;0.90;;
31482;SDS011;18103;52.246;8.052;2022-12-29T12:31:06;3.70;;;0.83;;
31482;SDS011;18103;52.246;8.052;2022-12-29T12:33:42;3.57;;;0.80;;
31482;SDS011;18103;52.246;8.052;2022-12-29T12:56:30;3.53;;;0.97;;
31482;SDS011;18103;52.246;8.052;2022-12-29T12:59:36;7.20;;;0.70;;
31482;SDS011;18103;52.246;8.052;2022-12-29T13:05:34;4.37;;;0.80;;
31482;SDS011;18103;52.246;8.052;2022-12-29T13:11:13;3.80;;;0.80;;
31482;SDS011;18103;52.246;8.052;2022-12-29T13:24:18;0.47;;;0.43;;
31482;SDS011;18103;52.246;8.052;2022-12-29T13:26:53;7.97;;;0.83;;
31482;SDS011;18103;52.246;8.052;2022-12-29T13:29:33;3.90;;;0.80;;
31482;SDS011;18103;52.246;8.052;2022-12-29T13:34:42;5.77;;;0.60;;
31482;SDS011;18103;52.246;8.052;2022-12-29T13:37:20;6.23;;;0.90;;
31482;SDS011;18103;52.246;8.052;2022-12-29T13:39:55;4.40;;;0.90;;
31482;SDS011;18103;52.246;8.052;2022-12-29T13:42:27;1.70;;;1.07;;
31482;SDS011;18103;52.246;8.052;2022-12-29T13:45:04;5.80;;;1.27;;
31482;SDS011;18103;52.246;8.052;2022-12-29T13:50:15;6.90;;;1.10;;
31482;SDS011;18103;52.246;8.052;2022-12-29T13:55:29;9.83;;;1.23;;
31482;SDS011;18103;52.246;8.052;2022-12-29T13:58:03;6.67;;;1.37;;
31482;SDS011;18103;52.246;8.052;2022-12-29T14:00:45;1.57;;;0.80;;
31482;SDS011;18103;52.246;8.052;2022-12-29T14:03:23;2.33;;;0.83;;
31482;SDS011;18103;52.246;8.052;2022-12-29T14:06:18;6.13;;;1.10;;
31482;SDS011;18103;52.246;8.052;2022-12-29T14:08:54;3.30;;;1.10;;
31482;SDS011;18103;52.246;8.052;2022-12-29T14:11:21;2.37;;;0.67;;
31482;SDS011;18103;52.246;8.052;2022-12-29T14:13:53;4.67;;;0.80;;
31482;SDS011;18103;52.246;8.052;2022-12-29T14:16:29;5.43;;;1.40;;
31482;SDS011;18103;52.246;8.052;2022-12-29T14:18:57;9.33;;;1.00;;
31482;SDS011;18103;52.246;8.052;2022-12-29T14:21:30;7.77;;;1.30;;
31482;SDS011;18103;52.246;8.052;2022-12-29T14:26:57;7.10;;;1.03;;
31482;SDS011;18103;52.246;8.052;2022-12-29T14:31:48;5.37;;;1.17;;
31482;SDS011;18103;52.246;8.052;2022-12-29T14:52:42;7.60;;;1.37;;
31482;SDS011;18103;52.246;8.052;2022-12-29T14:58:15;4.67;;;1.10;;
31482;SDS011;18103;52.246;8.052;2022-12-29T15:00:44;2.10;;;0.90;;
31482;SDS011;18103;52.246;8.052;2022-12-29T15:05:51;2.17;;;1.00;;
31482;SDS011;18103;52.246;8.052;2022-12-29T15:08:20;8.83;;;1.63;;
31482;SDS011;18103;52.246;8.052;2022-12-29T15:10:56;6.57;;;1.00;;
31482;SDS011;18103;52.246;8.052;2022-12-29T15:13:34;9.57;;;1.33;;
31482;SDS011;18103;52.246;8.052;2022-12-29T15:16:01;4.53;;;1.00;;
31482;SDS011;18103;52.246;8.052;2022-12-29T15:18:45;7.80;;;1.17;;
31482;SDS011;18103;52.246;8.052;2022-12-29T15:21:11;5.40;;;0.83;;
31482;SDS011;18103;52.246;8.052;2022-12-29T15:23:39;12.33;;;2.20;;
31482;SDS011;18103;52.246;8.052;2022-12-29T15:26:08;6.67;;;1.20;;
31482;SDS011;18103;52.246;8.052;2022-12-29T15:28:39;5.23;;;1.10;;
31482;SDS011;18103;52.246;8.052;2022-12-29T15:31:27;3.23;;;1.40;;
31482;SDS011;18103;52.246;8.052;2022-12-29T15:33:54;5.50;;;1.00;;
31482;SDS011;18103;52.246;8.052;2022-12-29T15:36:27;2.60;;;1.23;;
31482;SDS011;18103;52.246;8.052;2022-12-29T15:39:01;8.83;;;0.93;;
31482;SDS011;18103;52.246;8.052;2022-12-29T15:42:05;8.30;;;1.43;;
31482;SDS011;18103;52.246;8.052;2022-12-29T15:44:52;4.60;;;1.10;;
31482;SDS011;18103;52.246;8.052;2022-12-29T15:47:25;7.70;;;1.27;;
31482;SDS011;18103;52.246;8.052;2022-12-29T15:49:56;4.87;;;1.20;;
31482;SDS011;18103;52.246;8.052;2022-12-29T15:52:28;8.70;;;1.30;;
31482;SDS011;18103;52.246;8.052;2022-12-29T15:54:54;7.07;;;1.13;;
31482;SDS011;18103;52.246;8.052;2022-12-29T15:57:30;5.77;;;1.23;;
31482;SDS011;18103;52.246;8.052;2022-12-29T16:00:02;5.17;;;1.07;;
31482;SDS011;18103;52.246;8.052;2022-12-29T16:02:29;4.30;;;1.00;;
31482;SDS011;18103;52.246;8.052;2022-12-29T16:04:55;7.97;;;1.33;;
31482;SDS011;18103;52.246;8.052;2022-12-29T16:07:28;7.30;;;1.33;;
31482;SDS011;18103;52.246;8.052;2022-12-29T16:09:59;8.07;;;1.43;;
31482;SDS011;18103;52.246;8.052;2022-12-29T16:12:35;8.17;;;1.23;;
31482;SDS011;18103;52.246;8.052;2022-12-29T16:15:04;1.23;;;0.70;;
31482;SDS011;18103;52.246;8.052;2022-12-29T16:17:34;3.40;;;0.60;;
31482;SDS011;18103;52.246;8.052;2022-12-29T16:20:16;5.00;;;0.60;;
31482;SDS011;18103;52.246;8.052;2022-12-29T16:22:52;2.37;;;0.60;;
31482;SDS011;18103;52.246;8.052;2022-12-29T16:28:21;7.73;;;0.70;;
31482;SDS011;18103;52.246;8.052;2022-12-29T16:31:01;2.43;;;0.63;;
31482;SDS011;18103;52.246;8.052;2022-12-29T16:33:48;4.20;;;0.60;;
31482;SDS011;18103;52.246;8.052;2022-12-29T16:42:32;2.80;;;0.70;;
31482;SDS011;18103;52.246;8.052;2022-12-29T16:47:43;6.73;;;1.03;;
31482;SDS011;18103;52.246;8.052;2022-12-29T16:50:12;6.87;;;1.17;;
31482;SDS011;18103;52.246;8.052;2022-12-29T16:52:42;1.50;;;0.80;;
31482;SDS011;18103;52.246;8.052;2022-12-29T16:55:14;5.40;;;1.30;;
31482;SDS011;18103;52.246;8.052;2022-12-29T16:57:41;4.60;;;1.03;;
31482;SDS011;18103;52.246;8.052;2022-12-29T17:00:17;1.43;;;0.77;;
31482;SDS011;18103;52.246;8.052;2022-12-29T17:02:45;4.07;;;0.93;;
31482;SDS011;18103;52.246;8.052;2022-12-29T17:05:14;5.50;;;0.83;;
31482;SDS011;18103;52.246;8.052;2022-12-29T17:07:41;2.40;;;0.60;;
31482;SDS011;18103;52.246;8.052;2022-12-29T17:10:07;6.73;;;1.03;;
31482;SDS011;18103;52.246;8.052;2022-12-29T17:12:33;3.20;;;0.70;;
31482;SDS011;18103;52.246;8.052;2022-12-29T17:15:00;1.83;;;0.97;;
31482;SDS011;18103;52.246;8.052;2022-12-29T17:17:35;0.63;;;0.43;;
31482;SDS011;18103;52.246;8.052;2022-12-29T17:20:08;1.10;;;0.83;;
31482;SDS011;18103;52.246;8.052;2022-12-29T17:22:47;4.27;;;1.00;;
31482;SDS011;18103;52.246;8.052;2022-12-29T17:25:14;3.37;;;0.80;;
31482;SDS011;18103;52.246;8.052;2022-12-29T17:27:44;1.27;;;0.60;;
31482;SDS011;18103;52.246;8.052;2022-12-29T17:30:31;2.33;;;1.00;;
31482;SDS011;18103;52.246;8.052;2022-12-29T17:33:00;4.10;;;1.07;;
31482;SDS011;18103;52.246;8.052;2022-12-29T17:35:28;3.23;;;0.90;;
31482;SDS011;18103;52.246;8.052;2022-12-29T17:37:54;1.83;;;0.77;;
31482;SDS011;18103;52.246;8.052;2022-12-29T17:40:23;1.90;;;1.10;;
31482;SDS011;18103;52.246;8.052;2022-12-29T17:42:51;2.47;;;0.63;;
31482;SDS011;18103;52.246;8.052;2022-12-29T17:45:22;2.83;;;0.67;;
31482;SDS011;18103;52.246;8.052;2022-12-29T17:47:55;4.07;;;0.93;;
31482;SDS011;18103;52.246;8.052;2022-12-29T17:50:25;1.53;;;0.63;;
31482;SDS011;18103;52.246;8.052;2022-12-29T17:52:58;4.93;;;0.63;;
31482;SDS011;18103;52.246;8.052;2022-12-29T17:55:27;5.73;;;0.90;;
31482;SDS011;18103;52.246;8.052;2022-12-29T17:57:53;2.57;;;0.80;;